sensor_id;sensor_type;location;lat;lon;timestamp;pressure;altitude;pressure_sealevel;temperature;humidity
48606;BME280;8482;54.396;18.590;2023-11-19T00:00:45;102003.63;;;3.47;85.80
48606;BME280;8482;54.396;18.590;2023-11-19T00:03:11;102001.00;;;3.47;86.35
48606;BME280;8482;54.396;18.590;2023-11-19T00:05:39;101994.16;;;3.41;86.32
48606;BME280;8482;54.396;18.590;2023-11-19T00:08:05;102000.25;;;3.42;86.25
48606;BME280;8482;54.396;18.590;2023-11-19T00:10:32;101989.97;;;3.35;86.30
48606;BME280;8482;54.396;18.590;2023-11-19T00:12:57;101992.47;;;3.38;86.96
48606;BME280;8482;54.396;18.590;2023-11-19T00:15:23;101984.72;;;3.35;86.72
48606;BME280;8482;54.396;18.590;2023-11-19T00:17:49;101977.84;;;3.31;86.22
48606;BME280;8482;54.396;18.590;2023-11-19T00:20:20;101965.69;;;3.29;86.54
48606;BME280;8482;54.396;18.590;2023-11-19T00:22:49;101977.88;;;3.30;86.13
48606;BME280;8482;54.396;18.590;2023-11-19T00:25:19;101977.88;;;3.30;86.15
48606;BME280;8482;54.396;18.590;2023-11-19T00:27:45;101968.44;;;3.24;86.00
48606;BME280;8482;54.396;18.590;2023-11-19T00:30:12;101977.19;;;3.23;85.96
48606;BME280;8482;54.396;18.590;2023-11-19T00:32:39;101972.75;;;3.25;86.90
48606;BME280;8482;54.396;18.590;2023-11-19T00:35:06;101969.19;;;3.28;85.83
48606;BME280;8482;54.396;18.590;2023-11-19T00:37:33;101972.75;;;3.25;86.32
48606;BME280;8482;54.396;18.590;2023-11-19T00:39:58;101955.56;;;3.15;85.75
48606;BME280;8482;54.396;18.590;2023-11-19T00:42:25;101979.81;;;3.23;85.38
48606;BME280;8482;54.396;18.590;2023-11-19T00:44:51;101978.94;;;3.22;85.80
48606;BME280;8482;54.396;18.590;2023-11-19T00:47:17;101972.13;;;3.17;85.75
48606;BME280;8482;54.396;18.590;2023-11-19T00:49:47;101980.75;;;3.20;85.25
48606;BME280;8482;54.396;18.590;2023-11-19T00:52:15;101973.78;;;3.19;85.75
48606;BME280;8482;54.396;18.590;2023-11-19T00:54:41;101966.03;;;3.16;85.51
48606;BME280;8482;54.396;18.590;2023-11-19T00:57:06;101967.75;;;3.17;85.66
48606;BME280;8482;54.396;18.590;2023-11-19T00:59:32;101957.34;;;3.14;85.61
48606;BME280;8482;54.396;18.590;2023-11-19T01:01:58;101958.16;;;3.16;85.55
48606;BME280;8482;54.396;18.590;2023-11-19T01:04:37;101957.38;;;3.13;85.39
48606;BME280;8482;54.396;18.590;2023-11-19T01:07:04;101959.06;;;3.15;85.23
48606;BME280;8482;54.396;18.590;2023-11-19T01:09:31;101962.59;;;3.14;85.74
48606;BME280;8482;54.396;18.590;2023-11-19T01:11:58;101956.56;;;3.11;85.69
48606;BME280;8482;54.396;18.590;2023-11-19T01:14:26;101953.03;;;3.12;85.67
48606;BME280;8482;54.396;18.590;2023-11-19T01:16:52;101939.06;;;3.11;85.34
48606;BME280;8482;54.396;18.590;2023-11-19T01:19:21;101925.13;;;3.09;85.96
48606;BME280;8482;54.396;18.590;2023-11-19T01:21:48;101923.41;;;3.08;85.19
48606;BME280;8482;54.396;18.590;2023-11-19T01:24:14;101913.88;;;3.05;85.46
48606;BME280;8482;54.396;18.590;2023-11-19T01:26:41;101920.84;;;3.06;86.04
48606;BME280;8482;54.396;18.590;2023-11-19T01:29:15;101914.78;;;3.04;85.37
48606;BME280;8482;54.396;18.590;2023-11-19T01:31:46;101907.00;;;3.01;86.28
48606;BME280;8482;54.396;18.590;2023-11-19T01:34:16;101905.19;;;3.03;86.13
48606;BME280;8482;54.396;18.590;2023-11-19T01:36:42;101915.56;;;3.08;86.01
48606;BME280;8482;54.396;18.590;2023-11-19T01:39:08;101918.16;;;3.08;86.13
48606;BME280;8482;54.396;18.590;2023-11-19T01:41:37;101910.28;;;3.10;86.06
48606;BME280;8482;54.396;18.590;2023-11-19T01:44:06;101906.78;;;3.09;85.82
48606;BME280;8482;54.396;18.590;2023-11-19T01:46:32;101905.88;;;3.10;85.74
48606;BME280;8482;54.396;18.590;2023-11-19T01:49:00;101895.47;;;3.07;85.81
48606;BME280;8482;54.396;18.590;2023-11-19T01:51:27;101896.28;;;3.11;85.33
48606;BME280;8482;54.396;18.590;2023-11-19T01:53:53;101892.00;;;3.06;85.46
48606;BME280;8482;54.396;18.590;2023-11-19T01:56:20;101901.50;;;3.11;84.73
48606;BME280;8482;54.396;18.590;2023-11-19T01:58:49;101898.91;;;3.11;85.00
48606;BME280;8482;54.396;18.590;2023-11-19T02:01:16;101889.31;;;3.10;84.64
48606;BME280;8482;54.396;18.590;2023-11-19T02:03:42;101887.53;;;3.10;85.07
48606;BME280;8482;54.396;18.590;2023-11-19T02:06:08;101887.53;;;3.10;84.43
48606;BME280;8482;54.396;18.590;2023-11-19T02:08:36;101871.84;;;3.09;83.77
48606;BME280;8482;54.396;18.590;2023-11-19T02:11:03;101864.97;;;3.04;83.58
48606;BME280;8482;54.396;18.590;2023-11-19T02:13:29;101868.41;;;3.06;83.17
48606;BME280;8482;54.396;18.590;2023-11-19T02:15:55;101856.22;;;3.05;81.84
48606;BME280;8482;54.396;18.590;2023-11-19T02:18:27;101842.34;;;3.02;82.36
48606;BME280;8482;54.396;18.590;2023-11-19T02:20:59;101841.44;;;3.03;81.30
48606;BME280;8482;54.396;18.590;2023-11-19T02:23:30;101831.81;;;3.03;81.15
48606;BME280;8482;54.396;18.590;2023-11-19T02:26:12;101827.47;;;3.02;80.22
48606;BME280;8482;54.396;18.590;2023-11-19T02:28:41;101810.91;;;3.00;81.02
48606;BME280;8482;54.396;18.590;2023-11-19T02:31:07;101804.84;;;2.98;80.00
48606;BME280;8482;54.396;18.590;2023-11-19T02:33:37;101814.44;;;2.99;80.10
48606;BME280;8482;54.396;18.590;2023-11-19T02:36:05;101798.00;;;2.94;79.95
48606;BME280;8482;54.396;18.590;2023-11-19T02:38:33;101802.97;;;3.03;79.74
48606;BME280;8482;54.396;18.590;2023-11-19T02:41:03;101795.19;;;3.00;79.72
48606;BME280;8482;54.396;18.590;2023-11-19T02:43:31;101803.03;;;3.02;79.65
48606;BME280;8482;54.396;18.590;2023-11-19T02:46:03;101788.28;;;2.98;79.18
48606;BME280;8482;54.396;18.590;2023-11-19T02:48:33;101785.75;;;2.95;78.19
48606;BME280;8482;54.396;18.590;2023-11-19T02:51:04;101793.59;;;2.96;78.91
48606;BME280;8482;54.396;18.590;2023-11-19T02:53:30;101793.59;;;2.95;79.28
48606;BME280;8482;54.396;18.590;2023-11-19T02:55:57;101788.44;;;2.93;79.25
48606;BME280;8482;54.396;18.590;2023-11-19T02:58:27;101775.34;;;2.91;78.63
48606;BME280;8482;54.396;18.590;2023-11-19T03:00:54;101770.97;;;2.92;79.39
48606;BME280;8482;54.396;18.590;2023-11-19T03:03:25;101771.88;;;2.91;79.40
48606;BME280;8482;54.396;18.590;2023-11-19T03:05:54;101752.88;;;2.84;79.06
48606;BME280;8482;54.396;18.590;2023-11-19T03:08:21;101764.09;;;2.89;79.60
48606;BME280;8482;54.396;18.590;2023-11-19T03:10:48;101764.97;;;2.88;79.91
48606;BME280;8482;54.396;18.590;2023-11-19T03:13:14;101758.94;;;2.86;79.64
48606;BME280;8482;54.396;18.590;2023-11-19T03:15:41;101756.31;;;2.86;80.17
48606;BME280;8482;54.396;18.590;2023-11-19T03:18:07;101749.41;;;2.84;80.14
48606;BME280;8482;54.396;18.590;2023-11-19T03:20:33;101742.63;;;2.76;80.21
48606;BME280;8482;54.396;18.590;2023-11-19T03:22:59;101744.25;;;2.81;81.12
48606;BME280;8482;54.396;18.590;2023-11-19T03:25:27;101732.19;;;2.75;80.48
48606;BME280;8482;54.396;18.590;2023-11-19T03:27:59;101729.50;;;2.76;80.82
48606;BME280;8482;54.396;18.590;2023-11-19T03:30:26;101721.84;;;2.70;80.79
48606;BME280;8482;54.396;18.590;2023-11-19T03:32:55;101713.25;;;2.65;81.29
48606;BME280;8482;54.396;18.590;2023-11-19T03:35:21;101711.50;;;2.66;81.65
48606;BME280;8482;54.396;18.590;2023-11-19T03:37:46;101700.47;;;2.54;81.53
48606;BME280;8482;54.396;18.590;2023-11-19T03:40:12;101710.97;;;2.54;81.87
48606;BME280;8482;54.396;18.590;2023-11-19T03:42:38;101706.59;;;2.55;82.22
48606;BME280;8482;54.396;18.590;2023-11-19T03:45:07;101703.16;;;2.53;81.85
48606;BME280;8482;54.396;18.590;2023-11-19T03:47:37;101694.53;;;2.49;82.60
48606;BME280;8482;54.396;18.590;2023-11-19T03:50:05;101682.44;;;2.45;82.84
48606;BME280;8482;54.396;18.590;2023-11-19T03:52:31;101671.13;;;2.43;82.92
48606;BME280;8482;54.396;18.590;2023-11-19T03:54:57;101669.28;;;2.47;83.12
48606;BME280;8482;54.396;18.590;2023-11-19T03:57:23;101663.97;;;2.50;82.86
48606;BME280;8482;54.396;18.590;2023-11-19T03:59:50;101660.53;;;2.48;82.72
48606;BME280;8482;54.396;18.590;2023-11-19T04:02:16;101655.19;;;2.51;82.58
48606;BME280;8482;54.396;18.590;2023-11-19T04:04:42;101656.97;;;2.50;82.40
48606;BME280;8482;54.396;18.590;2023-11-19T04:07:08;101653.47;;;2.50;82.32
48606;BME280;8482;54.396;18.590;2023-11-19T04:09:34;101660.44;;;2.51;82.38
48606;BME280;8482;54.396;18.590;2023-11-19T04:12:00;101648.31;;;2.47;82.80
48606;BME280;8482;54.396;18.590;2023-11-19T04:14:27;101644.88;;;2.46;82.49
48606;BME280;8482;54.396;18.590;2023-11-19T04:16:53;101647.34;;;2.51;82.32
48606;BME280;8482;54.396;18.590;2023-11-19T04:19:19;101642.16;;;2.49;82.05
48606;BME280;8482;54.396;18.590;2023-11-19T04:21:45;101631.72;;;2.48;82.15
48606;BME280;8482;54.396;18.590;2023-11-19T04:24:12;101632.63;;;2.47;81.65
48606;BME280;8482;54.396;18.590;2023-11-19T04:26:43;101612.69;;;2.42;81.73
48606;BME280;8482;54.396;18.590;2023-11-19T04:29:13;101616.91;;;2.47;81.93
48606;BME280;8482;54.396;18.590;2023-11-19T04:31:39;101616.97;;;2.45;81.21
48606;BME280;8482;54.396;18.590;2023-11-19T04:34:06;101604.81;;;2.42;81.64
48606;BME280;8482;54.396;18.590;2023-11-19T04:36:33;101590.09;;;2.38;81.61
48606;BME280;8482;54.396;18.590;2023-11-19T04:38:59;101589.25;;;2.38;82.04
48606;BME280;8482;54.396;18.590;2023-11-19T04:41:26;101589.28;;;2.36;81.65
48606;BME280;8482;54.396;18.590;2023-11-19T04:43:56;101579.72;;;2.35;81.83
48606;BME280;8482;54.396;18.590;2023-11-19T04:46:22;101584.94;;;2.35;81.35
48606;BME280;8482;54.396;18.590;2023-11-19T04:48:49;101584.03;;;2.38;80.93
48606;BME280;8482;54.396;18.590;2023-11-19T04:51:15;101581.34;;;2.39;81.86
48606;BME280;8482;54.396;18.590;2023-11-19T04:53:41;101571.72;;;2.40;81.67
48606;BME280;8482;54.396;18.590;2023-11-19T04:56:11;101563.97;;;2.37;80.94
48606;BME280;8482;54.396;18.590;2023-11-19T04:58:37;101559.66;;;2.34;80.49
48606;BME280;8482;54.396;18.590;2023-11-19T05:01:04;101558.84;;;2.34;80.76
48606;BME280;8482;54.396;18.590;2023-11-19T05:03:33;101558.75;;;2.37;80.92
48606;BME280;8482;54.396;18.590;2023-11-19T05:05:59;101552.63;;;2.36;80.52
48606;BME280;8482;54.396;18.590;2023-11-19T05:08:25;101557.03;;;2.36;80.92
48606;BME280;8482;54.396;18.590;2023-11-19T05:10:50;101550.91;;;2.35;80.41
48606;BME280;8482;54.396;18.590;2023-11-19T05:13:16;101556.16;;;2.35;80.16
48606;BME280;8482;54.396;18.590;2023-11-19T05:15:42;101557.06;;;2.34;79.98
48606;BME280;8482;54.396;18.590;2023-11-19T05:18:08;101553.75;;;2.29;80.48
48606;BME280;8482;54.396;18.590;2023-11-19T05:20:34;101546.06;;;2.23;80.14
48606;BME280;8482;54.396;18.590;2023-11-19T05:23:00;101551.16;;;2.27;80.29
48606;BME280;8482;54.396;18.590;2023-11-19T05:25:27;101544.31;;;2.23;80.15
48606;BME280;8482;54.396;18.590;2023-11-19T05:27:53;101533.97;;;2.19;80.60
48606;BME280;8482;54.396;18.590;2023-11-19T05:30:19;101537.31;;;2.24;80.87
48606;BME280;8482;54.396;18.590;2023-11-19T05:32:45;101531.25;;;2.22;80.50
48606;BME280;8482;54.396;18.590;2023-11-19T05:35:12;101527.00;;;2.19;80.69
48606;BME280;8482;54.396;18.590;2023-11-19T05:37:38;101524.44;;;2.18;80.91
48606;BME280;8482;54.396;18.590;2023-11-19T05:40:05;101515.84;;;2.12;81.00
48606;BME280;8482;54.396;18.590;2023-11-19T05:42:40;101515.75;;;2.16;81.27
48606;BME280;8482;54.396;18.590;2023-11-19T05:45:08;101511.47;;;2.13;81.25
48606;BME280;8482;54.396;18.590;2023-11-19T05:47:34;101507.13;;;2.12;81.27
48606;BME280;8482;54.396;18.590;2023-11-19T05:50:00;101493.38;;;2.05;81.02
48606;BME280;8482;54.396;18.590;2023-11-19T05:52:25;101501.13;;;2.08;81.31
48606;BME280;8482;54.396;18.590;2023-11-19T05:54:51;101500.31;;;2.06;81.05
48606;BME280;8482;54.396;18.590;2023-11-19T05:57:18;101505.56;;;2.06;81.31
48606;BME280;8482;54.396;18.590;2023-11-19T05:59:49;101495.25;;;2.02;81.68
48606;BME280;8482;54.396;18.590;2023-11-19T06:02:15;101487.53;;;1.97;81.53
48606;BME280;8482;54.396;18.590;2023-11-19T06:04:41;101491.81;;;1.99;81.55
48606;BME280;8482;54.396;18.590;2023-11-19T06:07:09;101489.25;;;1.98;81.80
48606;BME280;8482;54.396;18.590;2023-11-19T06:09:35;101489.31;;;1.96;81.59
48606;BME280;8482;54.396;18.590;2023-11-19T06:12:01;101476.31;;;1.93;81.55
48606;BME280;8482;54.396;18.590;2023-11-19T06:14:31;101468.56;;;1.90;81.70
48606;BME280;8482;54.396;18.590;2023-11-19T06:16:57;101474.59;;;1.92;81.27
48606;BME280;8482;54.396;18.590;2023-11-19T06:19:23;101472.88;;;1.91;81.79
48606;BME280;8482;54.396;18.590;2023-11-19T06:21:50;101467.72;;;1.90;82.20
48606;BME280;8482;54.396;18.590;2023-11-19T06:24:16;101473.84;;;1.89;81.77
48606;BME280;8482;54.396;18.590;2023-11-19T06:26:42;101467.75;;;1.88;82.27
48606;BME280;8482;54.396;18.590;2023-11-19T06:29:08;101459.22;;;1.81;82.09
48606;BME280;8482;54.396;18.590;2023-11-19T06:31:34;101469.59;;;1.84;82.57
48606;BME280;8482;54.396;18.590;2023-11-19T06:34:00;101465.28;;;1.83;82.76
48606;BME280;8482;54.396;18.590;2023-11-19T06:36:26;101474.91;;;1.83;82.80
48606;BME280;8482;54.396;18.590;2023-11-19T06:38:52;101467.88;;;1.85;82.54
48606;BME280;8482;54.396;18.590;2023-11-19T06:41:18;101457.47;;;1.82;82.13
48606;BME280;8482;54.396;18.590;2023-11-19T06:43:44;101458.31;;;1.82;82.25
48606;BME280;8482;54.396;18.590;2023-11-19T06:46:16;101453.19;;;1.79;82.34
48606;BME280;8482;54.396;18.590;2023-11-19T06:48:43;101450.53;;;1.81;82.23
48606;BME280;8482;54.396;18.590;2023-11-19T06:51:10;101454.91;;;1.80;82.45
48606;BME280;8482;54.396;18.590;2023-11-19T06:53:36;101454.91;;;1.80;82.30
48606;BME280;8482;54.396;18.590;2023-11-19T06:56:03;101448.09;;;1.75;81.91
48606;BME280;8482;54.396;18.590;2023-11-19T06:58:35;101440.97;;;1.80;82.07
48606;BME280;8482;54.396;18.590;2023-11-19T07:01:01;101434.03;;;1.79;82.31
48606;BME280;8482;54.396;18.590;2023-11-19T07:03:27;101440.09;;;1.79;82.69
48606;BME280;8482;54.396;18.590;2023-11-19T07:05:53;101430.44;;;1.81;82.20
48606;BME280;8482;54.396;18.590;2023-11-19T07:08:19;101430.44;;;1.81;82.79
48606;BME280;8482;54.396;18.590;2023-11-19T07:10:45;101427.91;;;1.80;82.60
48606;BME280;8482;54.396;18.590;2023-11-19T07:13:12;101427.03;;;1.79;83.13
48606;BME280;8482;54.396;18.590;2023-11-19T07:15:38;101409.72;;;1.75;83.15
48606;BME280;8482;54.396;18.590;2023-11-19T07:18:04;101410.47;;;1.79;82.90
48606;BME280;8482;54.396;18.590;2023-11-19T07:20:30;101412.09;;;1.83;82.97
48606;BME280;8482;54.396;18.590;2023-11-19T07:22:56;101411.16;;;1.86;82.93
48606;BME280;8482;54.396;18.590;2023-11-19T07:25:22;101409.34;;;1.88;82.54
48606;BME280;8482;54.396;18.590;2023-11-19T07:27:49;101404.03;;;1.89;82.49
48606;BME280;8482;54.396;18.590;2023-11-19T07:30:14;101390.16;;;1.87;82.67
48606;BME280;8482;54.396;18.590;2023-11-19T07:32:40;101403.06;;;1.93;82.76
48606;BME280;8482;54.396;18.590;2023-11-19T07:35:06;101396.03;;;1.94;82.73
48606;BME280;8482;54.396;18.590;2023-11-19T07:37:33;101392.53;;;1.95;82.36
48606;BME280;8482;54.396;18.590;2023-11-19T07:39:58;101386.38;;;1.96;81.86
48606;BME280;8482;54.396;18.590;2023-11-19T07:42:24;101384.59;;;1.98;82.25
48606;BME280;8482;54.396;18.590;2023-11-19T07:44:50;101374.19;;;1.96;82.22
48606;BME280;8482;54.396;18.590;2023-11-19T07:47:16;101371.34;;;2.03;82.23
48606;BME280;8482;54.396;18.590;2023-11-19T07:49:42;101374.69;;;2.06;82.15
48606;BME280;8482;54.396;18.590;2023-11-19T07:52:09;101366.84;;;2.06;81.90
48606;BME280;8482;54.396;18.590;2023-11-19T07:54:35;101366.75;;;2.09;81.89
48606;BME280;8482;54.396;18.590;2023-11-19T07:57:01;101352.84;;;2.09;81.52
48606;BME280;8482;54.396;18.590;2023-11-19T07:59:27;101353.50;;;2.14;81.28
48606;BME280;8482;54.396;18.590;2023-11-19T08:01:52;101347.34;;;2.17;81.52
48606;BME280;8482;54.396;18.590;2023-11-19T08:04:18;101348.13;;;2.19;81.34
48606;BME280;8482;54.396;18.590;2023-11-19T08:06:44;101348.03;;;2.22;81.04
48606;BME280;8482;54.396;18.590;2023-11-19T08:09:11;101344.50;;;2.23;81.01
48606;BME280;8482;54.396;18.590;2023-11-19T08:11:41;101333.34;;;2.18;80.62
48606;BME280;8482;54.396;18.590;2023-11-19T08:14:06;101318.41;;;2.20;80.59
48606;BME280;8482;54.396;18.590;2023-11-19T08:16:32;101337.34;;;2.28;79.95
48606;BME280;8482;54.396;18.590;2023-11-19T08:18:58;101323.38;;;2.27;79.66
48606;BME280;8482;54.396;18.590;2023-11-19T08:21:24;101320.78;;;2.27;80.17
48606;BME280;8482;54.396;18.590;2023-11-19T08:23:52;101320.47;;;2.37;80.05
48606;BME280;8482;54.396;18.590;2023-11-19T08:26:18;101317.72;;;2.40;79.89
48606;BME280;8482;54.396;18.590;2023-11-19T08:28:44;101317.63;;;2.43;79.81
48606;BME280;8482;54.396;18.590;2023-11-19T08:31:10;101318.34;;;2.47;80.09
48606;BME280;8482;54.396;18.590;2023-11-19T08:33:36;101311.31;;;2.49;80.07
48606;BME280;8482;54.396;18.590;2023-11-19T08:36:02;101304.34;;;2.48;79.56
48606;BME280;8482;54.396;18.590;2023-11-19T08:38:29;101297.19;;;2.53;79.57
48606;BME280;8482;54.396;18.590;2023-11-19T08:40:55;101298.03;;;2.53;79.28
48606;BME280;8482;54.396;18.590;2023-11-19T08:43:26;101282.47;;;2.50;78.69
48606;BME280;8482;54.396;18.590;2023-11-19T08:45:52;101272.09;;;2.47;78.94
48606;BME280;8482;54.396;18.590;2023-11-19T08:48:18;101275.44;;;2.51;78.46
48606;BME280;8482;54.396;18.590;2023-11-19T08:50:43;101275.53;;;2.48;77.83
48606;BME280;8482;54.396;18.590;2023-11-19T08:53:09;101263.34;;;2.47;77.83
48606;BME280;8482;54.396;18.590;2023-11-19T08:55:35;101246.09;;;2.41;77.99
48606;BME280;8482;54.396;18.590;2023-11-19T08:58:01;101266.78;;;2.49;78.48
48606;BME280;8482;54.396;18.590;2023-11-19T09:00:27;101257.28;;;2.46;78.88
48606;BME280;8482;54.396;18.590;2023-11-19T09:02:53;101253.69;;;2.49;78.21
48606;BME280;8482;54.396;18.590;2023-11-19T09:05:19;101266.56;;;2.55;78.73
48606;BME280;8482;54.396;18.590;2023-11-19T09:07:45;101245.78;;;2.50;78.34
48606;BME280;8482;54.396;18.590;2023-11-19T09:10:10;101245.63;;;2.55;78.63
48606;BME280;8482;54.396;18.590;2023-11-19T09:12:37;101248.00;;;2.61;78.11
48606;BME280;8482;54.396;18.590;2023-11-19T09:15:03;101243.63;;;2.62;78.51
48606;BME280;8482;54.396;18.590;2023-11-19T09:17:29;101246.06;;;2.66;78.25
48606;BME280;8482;54.396;18.590;2023-11-19T09:19:55;101241.63;;;2.68;78.08
48606;BME280;8482;54.396;18.590;2023-11-19T09:22:21;101237.19;;;2.70;78.11
48606;BME280;8482;54.396;18.590;2023-11-19T09:24:47;101233.50;;;2.74;78.06
48606;BME280;8482;54.396;18.590;2023-11-19T09:27:13;101217.00;;;2.72;78.71
48606;BME280;8482;54.396;18.590;2023-11-19T09:29:39;101228.84;;;2.83;77.93
48606;BME280;8482;54.396;18.590;2023-11-19T09:32:06;101227.00;;;2.85;77.76
48606;BME280;8482;54.396;18.590;2023-11-19T09:34:32;101221.75;;;2.85;77.30
48606;BME280;8482;54.396;18.590;2023-11-19T09:36:58;101208.81;;;2.82;77.31
48606;BME280;8482;54.396;18.590;2023-11-19T09:39:24;101213.00;;;2.86;76.99
48606;BME280;8482;54.396;18.590;2023-11-19T09:41:51;101206.78;;;2.88;76.65
48606;BME280;8482;54.396;18.590;2023-11-19T09:44:18;101205.00;;;2.89;76.31
48606;BME280;8482;54.396;18.590;2023-11-19T09:46:45;101197.03;;;2.92;76.61
48606;BME280;8482;54.396;18.590;2023-11-19T09:49:13;101188.31;;;2.91;76.90
48606;BME280;8482;54.396;18.590;2023-11-19T09:51:39;101190.16;;;2.89;76.20
48606;BME280;8482;54.396;18.590;2023-11-19T09:54:05;101189.25;;;2.90;76.49
48606;BME280;8482;54.396;18.590;2023-11-19T09:56:34;101185.75;;;2.90;77.13
48606;BME280;8482;54.396;18.590;2023-11-19T09:59:02;101179.53;;;2.92;76.58
48606;BME280;8482;54.396;18.590;2023-11-19T10:01:28;101180.44;;;2.91;76.44
48606;BME280;8482;54.396;18.590;2023-11-19T10:03:55;101169.03;;;2.92;76.27
48606;BME280;8482;54.396;18.590;2023-11-19T10:06:22;101170.81;;;2.92;76.46
48606;BME280;8482;54.396;18.590;2023-11-19T10:08:48;101157.81;;;2.90;76.39
48606;BME280;8482;54.396;18.590;2023-11-19T10:11:14;101153.47;;;2.89;76.72
48606;BME280;8482;54.396;18.590;2023-11-19T10:13:40;101156.03;;;2.91;76.52
48606;BME280;8482;54.396;18.590;2023-11-19T10:16:15;101144.69;;;2.90;76.57
48606;BME280;8482;54.396;18.590;2023-11-19T10:18:49;101135.88;;;2.91;76.19
48606;BME280;8482;54.396;18.590;2023-11-19T10:21:18;101132.44;;;2.91;76.00
48606;BME280;8482;54.396;18.590;2023-11-19T10:23:53;101128.22;;;2.87;75.72
48606;BME280;8482;54.396;18.590;2023-11-19T10:26:23;101119.56;;;2.85;76.05
48606;BME280;8482;54.396;18.590;2023-11-19T10:28:49;101120.50;;;2.84;76.39
48606;BME280;8482;54.396;18.590;2023-11-19T10:31:17;101097.16;;;2.78;76.27
48606;BME280;8482;54.396;18.590;2023-11-19T10:33:44;101097.16;;;2.78;76.37
48606;BME280;8482;54.396;18.590;2023-11-19T10:36:12;101100.63;;;2.78;76.43
48606;BME280;8482;54.396;18.590;2023-11-19T10:38:39;101092.91;;;2.75;76.31
48606;BME280;8482;54.396;18.590;2023-11-19T10:41:06;101091.00;;;2.79;76.67
48606;BME280;8482;54.396;18.590;2023-11-19T10:43:45;101082.38;;;2.76;76.36
48606;BME280;8482;54.396;18.590;2023-11-19T10:46:14;101078.09;;;2.74;76.26
48606;BME280;8482;54.396;18.590;2023-11-19T10:48:40;101071.16;;;2.73;76.42
48606;BME280;8482;54.396;18.590;2023-11-19T10:51:07;101055.56;;;2.70;76.08
48606;BME280;8482;54.396;18.590;2023-11-19T10:53:38;101058.84;;;2.75;76.40
48606;BME280;8482;54.396;18.590;2023-11-19T10:56:11;101055.38;;;2.74;76.72
48606;BME280;8482;54.396;18.590;2023-11-19T10:58:44;101053.53;;;2.76;76.62
48606;BME280;8482;54.396;18.590;2023-11-19T11:01:19;101058.84;;;2.75;76.05
48606;BME280;8482;54.396;18.590;2023-11-19T11:03:47;101043.13;;;2.75;76.20
48606;BME280;8482;54.396;18.590;2023-11-19T11:06:13;101039.00;;;2.69;76.42
48606;BME280;8482;54.396;18.590;2023-11-19T11:08:40;101037.91;;;2.75;76.39
48606;BME280;8482;54.396;18.590;2023-11-19T11:11:07;101041.34;;;2.75;76.71
48606;BME280;8482;54.396;18.590;2023-11-19T11:13:35;101027.34;;;2.76;76.97
48606;BME280;8482;54.396;18.590;2023-11-19T11:16:05;101028.06;;;2.80;76.70
48606;BME280;8482;54.396;18.590;2023-11-19T11:18:33;101025.41;;;2.82;77.32
48606;BME280;8482;54.396;18.590;2023-11-19T11:21:14;101013.25;;;2.79;77.57
48606;BME280;8482;54.396;18.590;2023-11-19T11:24:00;101018.25;;;2.85;77.71
48606;BME280;8482;54.396;18.590;2023-11-19T11:32:54;101002.25;;;2.91;77.45
48606;BME280;8482;54.396;18.590;2023-11-19T11:35:57;100994.53;;;2.88;77.48
48606;BME280;8482;54.396;18.590;2023-11-19T11:38:36;100992.75;;;2.89;77.37
48606;BME280;8482;54.396;18.590;2023-11-19T11:41:22;100985.78;;;2.89;77.16
48606;BME280;8482;54.396;18.590;2023-11-19T11:49:10;100960.53;;;2.87;76.26
48606;BME280;8482;54.396;18.590;2023-11-19T11:54:25;100955.94;;;2.92;76.78
48606;BME280;8482;54.396;18.590;2023-11-19T11:57:36;100951.69;;;2.89;77.03
48606;BME280;8482;54.396;18.590;2023-11-19T12:00:03;100942.97;;;2.89;76.47
48606;BME280;8482;54.396;18.590;2023-11-19T12:02:31;100942.13;;;2.88;76.94
48606;BME280;8482;54.396;18.590;2023-11-19T12:04:56;100927.47;;;2.84;76.75
48606;BME280;8482;54.396;18.590;2023-11-19T12:07:24;100932.50;;;2.89;77.38
48606;BME280;8482;54.396;18.590;2023-11-19T12:10:07;100916.91;;;2.86;77.96
48606;BME280;8482;54.396;18.590;2023-11-19T12:12:34;100911.63;;;2.87;77.80
48606;BME280;8482;54.396;18.590;2023-11-19T12:15:05;100916.66;;;2.92;77.74
48606;BME280;8482;54.396;18.590;2023-11-19T12:17:48;100914.03;;;2.92;77.86
48606;BME280;8482;54.396;18.590;2023-11-19T12:20:16;100901.00;;;2.90;77.86
48606;BME280;8482;54.396;18.590;2023-11-19T12:22:44;100905.16;;;2.95;78.31
48606;BME280;8482;54.396;18.590;2023-11-19T12:25:12;100901.63;;;2.96;79.08
48606;BME280;8482;54.396;18.590;2023-11-19T12:27:46;100891.09;;;2.97;78.86
48606;BME280;8482;54.396;18.590;2023-11-19T12:30:24;100896.34;;;2.97;78.95
48606;BME280;8482;54.396;18.590;2023-11-19T12:32:51;100882.38;;;2.97;78.46
48606;BME280;8482;54.396;18.590;2023-11-19T12:35:19;100883.16;;;2.99;78.81
48606;BME280;8482;54.396;18.590;2023-11-19T12:37:52;100874.44;;;2.98;78.91
48606;BME280;8482;54.396;18.590;2023-11-19T12:40:22;100869.97;;;3.00;78.75
48606;BME280;8482;54.396;18.590;2023-11-19T12:42:50;100870.88;;;2.99;78.10
48606;BME280;8482;54.396;18.590;2023-11-19T12:45:16;100857.88;;;2.98;78.81
48606;BME280;8482;54.396;18.590;2023-11-19T12:47:43;100856.09;;;2.98;79.21
48606;BME280;8482;54.396;18.590;2023-11-19T12:50:10;100853.47;;;2.98;78.47
48606;BME280;8482;54.396;18.590;2023-11-19T12:52:37;100854.41;;;2.97;78.60
48606;BME280;8482;54.396;18.590;2023-11-19T12:55:27;100839.44;;;2.99;79.37
48606;BME280;8482;54.396;18.590;2023-11-19T12:57:53;100834.19;;;2.99;79.27
48606;BME280;8482;54.396;18.590;2023-11-19T13:00:26;100830.75;;;2.99;79.50
48606;BME280;8482;54.396;18.590;2023-11-19T13:02:54;100828.97;;;2.99;79.32
48606;BME280;8482;54.396;18.590;2023-11-19T13:05:34;100822.09;;;2.97;79.18
48606;BME280;8482;54.396;18.590;2023-11-19T13:10:29;100814.38;;;2.94;79.95
48606;BME280;8482;54.396;18.590;2023-11-19T13:13:08;100803.06;;;2.93;79.66
48606;BME280;8482;54.396;18.590;2023-11-19T13:15:35;100796.94;;;2.92;80.35
48606;BME280;8482;54.396;18.590;2023-11-19T13:18:02;100791.78;;;2.91;80.19
48606;BME280;8482;54.396;18.590;2023-11-19T13:20:29;100796.19;;;2.90;80.34